Time;durP1;ratioP1;P1;durP2;ratioP2;P2;SDS_P1;SDS_P2;PMS_P1;PMS_P2;Temp;Humidity;BMP_temperature;BMP_pressure;BME280_temperature;BME280_humidity;BME280_pressure;Samples;Min_cycle;Max_cycle;Signal;HPM_P1;HPM_P2
2023/10/02 00:01:48;;;;;;;;;1.00;1.00;;;;;24.13;43.51;101519.72;109987;1253;21768;-38
2023/10/02 00:04:18;;;;;;;;;2.00;2.00;;;;;24.12;43.50;101517.14;110035;1260;20048;-38
2023/10/02 00:06:45;;;;;;;;;2.00;2.00;;;;;24.12;43.46;101514.96;110027;1251;19373;-38
2023/10/02 00:09:13;;;;;;;;;1.00;1.00;;;;;24.13;43.40;101516.86;110000;1267;18512;-39
2023/10/02 00:11:40;;;;;;;;;2.00;2.00;;;;;24.15;43.10;101516.60;110029;1253;20009;-39
2023/10/02 00:14:22;;;;;;;;;1.00;1.00;;;;;24.15;43.51;101511.17;110010;1267;19382;-39
2023/10/02 00:16:59;;;;;;;;;2.00;1.00;;;;;24.16;43.60;101514.73;110028;1253;19754;-38
2023/10/02 00:19:27;;;;;;;;;1.00;1.00;;;;;24.17;43.43;101514.13;110047;1252;20123;-37
2023/10/02 00:21:57;;;;;;;;;1.00;1.00;;;;;24.15;43.43;101508.55;110007;1266;20863;-37
2023/10/02 00:24:25;;;;;;;;;1.00;1.00;;;;;24.15;43.50;101505.54;110027;1267;18860;-37
2023/10/02 00:26:52;;;;;;;;;1.00;1.00;;;;;24.16;43.46;101503.35;110040;1267;18604;-38
2023/10/02 00:29:23;;;;;;;;;2.00;2.00;;;;;24.14;43.52;101496.84;110017;1251;22280;-38
2023/10/02 00:31:50;;;;;;;;;1.00;1.00;;;;;24.13;43.69;101500.17;110005;1251;19642;-38
2023/10/02 00:34:30;;;;;;;;;1.00;1.00;;;;;24.14;43.38;101491.91;110034;1251;20060;-38
2023/10/02 00:36:57;;;;;;;;;1.00;1.00;;;;;24.14;43.58;101495.03;110035;1253;20796;-38
2023/10/02 00:39:32;;;;;;;;;1.00;1.00;;;;;24.12;43.36;101494.48;110046;1266;22269;-39
2023/10/02 00:42:24;;;;;;;;;1.50;1.50;;;;;24.12;43.65;101501.22;110011;1255;20003;-39
2023/10/02 00:44:58;;;;;;;;;2.00;2.00;;;;;24.15;43.48;101500.39;110034;1252;20715;-38
2023/10/02 00:47:45;;;;;;;;;1.33;1.33;;;;;24.13;43.40;101499.24;109927;1252;19663;-38
2023/10/02 00:50:15;;;;;;;;;1.00;1.00;;;;;24.13;43.68;101499.73;110018;1261;20009;-39
2023/10/02 00:52:42;;;;;;;;;1.00;1.00;;;;;24.11;43.62;101496.13;109990;1266;22178;-37
2023/10/02 00:55:09;;;;;;;;;1.00;1.00;;;;;24.14;43.53;101491.26;109876;1267;18344;-36
2023/10/02 00:57:37;;;;;;;;;2.00;2.00;;;;;24.15;43.25;101496.52;109921;1251;20009;-37
2023/10/02 01:00:06;;;;;;;;;3.00;2.00;;;;;24.16;43.62;101495.52;109881;1253;20825;-37
2023/10/02 01:02:35;;;;;;;;;1.00;1.00;;;;;24.16;43.50;101499.85;110024;1251;19693;-37
2023/10/02 01:05:04;;;;;;;;;1.00;1.00;;;;;24.17;43.26;101499.23;110086;1260;19957;-38
2023/10/02 01:07:33;;;;;;;;;1.00;1.00;;;;;24.16;43.56;101500.39;110046;1266;19385;-38
2023/10/02 01:10:17;;;;;;;;;1.00;1.00;;;;;24.11;43.54;101496.45;110053;1251;19578;-38
2023/10/02 01:12:48;;;;;;;;;1.00;1.00;;;;;24.14;43.69;101494.81;110049;1260;19989;-37
2023/10/02 01:15:15;;;;;;;;;1.00;1.00;;;;;24.16;43.54;101493.32;110034;1252;20832;-40
2023/10/02 01:17:45;;;;;;;;;1.00;1.00;;;;;24.17;43.42;101493.27;110007;1267;22312;-40
2023/10/02 01:20:20;;;;;;;;;1.00;1.00;;;;;24.18;43.54;101490.87;110081;1259;18757;-37
2023/10/02 01:22:51;;;;;;;;;1.00;1.00;;;;;24.16;43.60;101487.91;110044;1267;19479;-39
2023/10/02 01:25:23;;;;;;;;;1.00;1.00;;;;;24.17;43.43;101489.71;110035;1251;18457;-39
2023/10/02 01:27:51;;;;;;;;;1.00;1.00;;;;;24.14;43.50;101490.64;110025;1251;20124;-38
2023/10/02 01:30:18;;;;;;;;;1.00;1.00;;;;;24.18;43.40;101489.98;110026;1252;20867;-39
2023/10/02 01:32:47;;;;;;;;;1.00;1.00;;;;;24.14;43.58;101491.14;110012;1251;19717;-38
2023/10/02 01:35:18;;;;;;;;;1.00;1.00;;;;;24.15;43.58;101490.21;110073;1267;18642;-37
2023/10/02 01:37:46;;;;;;;;;1.00;1.00;;;;;24.14;43.56;101485.29;110071;1251;20868;-38
2023/10/02 01:40:34;;;;;;;;;1.00;1.00;;;;;24.12;43.53;101486.81;110041;1253;19712;-38
2023/10/02 01:43:12;;;;;;;;;1.00;1.00;;;;;24.15;43.65;101489.94;110030;1251;18649;-38
2023/10/02 01:45:42;;;;;;;;;1.00;1.00;;;;;24.16;43.63;101488.73;110002;1260;20911;-38
2023/10/02 01:48:09;;;;;;;;;1.00;1.00;;;;;24.16;43.66;101492.40;109989;1251;19678;-39
2023/10/02 01:50:37;;;;;;;;;1.00;1.00;;;;;24.17;43.64;101496.95;109965;1251;22107;-38
2023/10/02 01:53:05;;;;;;;;;1.00;1.00;;;;;24.15;43.68;101492.73;109996;1254;20799;-39
2023/10/02 01:55:35;;;;;;;;;2.00;2.00;;;;;24.15;43.52;101496.89;110042;1252;19667;-39
2023/10/02 01:58:16;;;;;;;;;1.50;1.00;;;;;24.15;43.77;101494.70;109991;1252;20020;-38
2023/10/02 02:00:45;;;;;;;;;2.00;2.00;;;;;24.15;43.63;101492.84;110002;1261;20728;-37
2023/10/02 02:03:15;;;;;;;;;1.00;1.00;;;;;24.14;43.65;101496.94;109999;1253;21019;-38
2023/10/02 02:05:46;;;;;;;;;2.00;2.00;;;;;24.18;43.70;101500.23;109983;1267;18910;-38
2023/10/02 02:08:23;;;;;;;;;1.00;1.00;;;;;24.14;43.77;101501.55;109998;1252;20956;-39
2023/10/02 02:10:50;;;;;;;;;1.00;1.00;;;;;24.16;43.71;101504.34;109976;1267;19892;-38
2023/10/02 02:13:17;;;;;;;;;1.00;1.00;;;;;24.17;43.78;101503.13;109990;1259;20309;-38
2023/10/02 02:15:45;;;;;;;;;1.00;1.00;;;;;24.14;43.79;101503.41;109978;1254;22885;-39
2023/10/02 02:18:14;;;;;;;;;1.00;1.00;;;;;24.14;43.77;101503.95;109988;1252;18401;-39
2023/10/02 02:20:58;;;;;;;;;2.00;2.00;;;;;24.15;43.83;101502.74;109994;1254;23745;-39
2023/10/02 02:23:27;;;;;;;;;2.00;2.00;;;;;24.14;43.68;101501.38;110024;1254;20817;-39
2023/10/02 02:25:54;;;;;;;;;1.00;1.00;;;;;24.12;43.64;101502.52;110038;1254;19710;-39
2023/10/02 02:28:22;;;;;;;;;1.00;1.00;;;;;24.17;43.73;101503.84;109976;1254;23258;-38
2023/10/02 02:30:49;;;;;;;;;1.00;1.00;;;;;24.16;43.80;101501.92;109985;1252;20715;-38
2023/10/02 02:33:34;;;;;;;;;2.00;2.00;;;;;24.13;43.74;101502.31;109979;1265;18647;-38
2023/10/02 02:36:05;;;;;;;;;1.00;1.00;;;;;24.15;43.63;101502.03;109983;1253;20247;-38
2023/10/02 02:38:34;;;;;;;;;2.00;2.00;;;;;24.15;43.64;101507.13;109898;1254;20795;-36
2023/10/02 02:41:05;;;;;;;;;1.00;1.00;;;;;24.14;43.81;101502.25;109954;1253;19653;-39
2023/10/02 02:43:32;;;;;;;;;1.00;1.00;;;;;24.13;43.76;101507.08;110021;1252;20123;-39
2023/10/02 02:45:59;;;;;;;;;2.00;2.00;;;;;24.14;43.68;101511.66;109995;1267;20825;-38
2023/10/02 02:48:43;;;;;;;;;2.00;2.00;;;;;24.14;44.01;101510.41;109996;1254;19628;-38
2023/10/02 02:51:18;;;;;;;;;1.00;1.00;;;;;24.14;43.82;101511.17;110039;1265;19987;-39
2023/10/02 02:53:46;;;;;;;;;1.50;1.50;;;;;24.15;43.73;101510.24;109987;1253;20778;-39
2023/10/02 02:56:18;;;;;;;;;1.00;1.00;;;;;24.16;43.85;101506.85;110025;1252;19689;-39
2023/10/02 02:58:45;;;;;;;;;1.00;1.00;;;;;24.16;43.61;101507.23;110014;1259;19943;-39
2023/10/02 03:01:13;;;;;;;;;1.00;1.00;;;;;24.16;43.79;101510.52;110024;1251;20929;-38
2023/10/02 03:03:42;;;;;;;;;1.00;1.00;;;;;24.14;43.78;101507.35;110004;1267;19557;-38
2023/10/02 03:06:09;;;;;;;;;1.00;1.00;;;;;24.12;43.91;101507.08;110010;1252;20103;-40
2023/10/02 03:08:38;;;;;;;;;1.00;1.00;;;;;24.13;43.91;101504.61;110003;1267;19354;-39
2023/10/02 03:11:06;;;;;;;;;1.00;1.00;;;;;24.15;43.95;101503.52;110019;1267;19873;-39
2023/10/02 03:13:35;;;;;;;;;1.00;1.00;;;;;24.13;43.85;101504.88;110034;1251;20012;-38
2023/10/02 03:16:08;;;;;;;;;1.00;1.00;;;;;24.15;43.82;101504.83;110015;1251;20683;-38
2023/10/02 03:18:36;;;;;;;;;1.00;1.00;;;;;24.15;43.84;101502.80;110025;1252;19695;-37
2023/10/02 03:21:14;;;;;;;;;1.00;1.00;;;;;24.13;43.80;101504.71;110018;1253;20075;-38
2023/10/02 03:23:42;;;;;;;;;1.00;1.00;;;;;24.16;43.76;101503.23;110005;1267;19491;-39
2023/10/02 03:26:09;;;;;;;;;1.00;1.00;;;;;24.16;43.60;101500.56;110010;1252;19737;-38
2023/10/02 03:28:39;;;;;;;;;1.50;1.50;;;;;24.14;43.95;101501.00;110009;1267;18664;-38
2023/10/02 03:31:06;;;;;;;;;1.00;1.00;;;;;24.16;43.72;101499.52;110005;1252;20791;-38
2023/10/02 03:33:33;;;;;;;;;1.00;1.00;;;;;24.16;43.83;101496.23;110027;1267;18420;-38
2023/10/02 03:36:08;;;;;;;;;1.00;1.00;;;;;24.14;43.66;101492.78;110025;1261;20100;-38
2023/10/02 03:38:35;;;;;;;;;1.00;1.00;;;;;24.14;43.78;101496.23;110022;1267;19819;-39
2023/10/02 03:41:02;;;;;;;;;3.00;2.00;;;;;24.14;43.93;101494.54;110016;1260;21096;-39
2023/10/02 03:43:42;;;;;;;;;1.00;1.00;;;;;24.15;43.84;101492.79;110021;1253;22210;-39
2023/10/02 03:46:14;;;;;;;;;1.50;1.50;;;;;24.14;43.83;101488.24;110013;1251;20813;-39
2023/10/02 03:48:41;;;;;;;;;1.00;1.00;;;;;24.16;43.95;101492.23;110016;1267;22358;-38
2023/10/02 03:51:08;;;;;;;;;2.00;2.00;;;;;24.16;43.79;101488.40;109990;1252;20137;-37
2023/10/02 03:53:36;;;;;;;;;2.00;1.00;;;;;24.16;43.78;101487.36;110007;1253;20780;-38
2023/10/02 03:58:44;;;;;;;;;2.00;2.00;;;;;24.16;43.94;101485.00;109981;1251;18623;-39
2023/10/02 04:01:17;;;;;;;;;1.67;1.67;;;;;24.16;43.96;101478.27;110004;1266;19382;-38
2023/10/02 04:03:56;;;;;;;;;1.00;1.00;;;;;24.14;43.98;101474.93;110015;1251;19690;-38
2023/10/02 04:06:33;;;;;;;;;2.00;2.00;;;;;24.16;43.87;101473.62;110001;1252;20135;-39
2023/10/02 04:09:11;;;;;;;;;1.00;1.00;;;;;24.15;43.83;101478.27;110019;1251;20832;-39
2023/10/02 04:11:39;;;;;;;;;1.00;1.00;;;;;24.16;43.92;101483.31;110037;1267;18454;-37
2023/10/02 04:14:17;;;;;;;;;1.00;1.00;;;;;24.17;43.66;101484.45;110004;1253;20108;-38
2023/10/02 04:16:46;;;;;;;;;1.50;1.50;;;;;24.14;44.01;101480.95;110009;1253;20820;-39
2023/10/02 04:19:15;;;;;;;;;1.00;1.00;;;;;24.14;43.89;101478.61;110000;1251;21542;-38
2023/10/02 04:21:43;;;;;;;;;1.00;1.00;;;;;24.16;43.93;101476.74;110005;1253;20080;-37
2023/10/02 04:24:11;;;;;;;;;2.00;2.00;;;;;24.16;44.02;101480.24;110030;1266;20740;-38
2023/10/02 04:26:41;;;;;;;;;1.50;1.50;;;;;24.16;43.86;101481.73;109992;1251;22896;-38
2023/10/02 04:29:25;;;;;;;;;1.00;1.00;;;;;24.18;43.91;101480.41;109959;1260;20969;-38
2023/10/02 04:32:11;;;;;;;;;2.00;1.00;;;;;24.17;43.97;101479.64;109945;1252;20677;-38
2023/10/02 04:34:46;;;;;;;;;1.00;1.00;;;;;24.16;43.78;101476.46;109974;1252;19687;-38
2023/10/02 04:37:20;;;;;;;;;1.00;1.00;;;;;24.12;43.97;101477.56;110002;1267;18619;-38
2023/10/02 04:39:53;;;;;;;;;1.33;1.33;;;;;24.15;43.94;101481.99;110007;1251;21055;-38
2023/10/02 04:42:22;;;;;;;;;1.00;1.00;;;;;24.12;43.97;101477.78;110009;1251;19666;-38
2023/10/02 04:44:56;;;;;;;;;1.00;1.00;;;;;24.10;43.90;101481.29;109998;1253;20050;-38
2023/10/02 04:47:26;;;;;;;;;2.00;2.00;;;;;24.12;43.95;101487.69;109987;1260;20804;-39
2023/10/02 04:52:57;;;;;;;;;2.00;2.00;;;;;24.13;44.32;101487.30;110031;1253;20124;-39
2023/10/02 04:55:25;;;;;;;;;1.00;1.00;;;;;24.12;44.06;101487.63;110032;1253;21048;-39
2023/10/02 04:57:54;;;;;;;;;1.50;1.50;;;;;24.12;44.14;101493.77;110034;1251;19662;-38
2023/10/02 05:00:27;;;;;;;;;1.00;1.00;;;;;24.13;44.03;101494.98;110010;1252;19996;-39
2023/10/02 05:03:09;;;;;;;;;1.50;1.50;;;;;24.14;44.14;101498.37;110014;1260;21999;-38
2023/10/02 05:05:37;;;;;;;;;2.00;2.00;;;;;24.17;44.18;101502.14;110008;1267;18812;-38
2023/10/02 05:08:10;;;;;;;;;2.00;2.00;;;;;24.17;45.66;101495.30;110007;1251;22155;-38
2023/10/02 05:10:37;;;;;;;;;1.00;1.00;;;;;24.20;46.57;101491.84;110013;1252;20794;-38
2023/10/02 05:13:08;;;;;;;;;2.00;2.00;;;;;24.23;47.02;101491.73;110027;1266;19875;-37
2023/10/02 05:15:38;;;;;;;;;2.00;2.00;;;;;24.28;47.95;101494.55;110030;1252;20085;-38
2023/10/02 05:18:09;;;;;;;;;5.00;3.00;;;;;24.26;48.33;101493.72;109973;1267;19380;-38
2023/10/02 05:20:38;;;;;;;;;2.00;2.00;;;;;24.21;48.48;101491.86;109957;1251;19713;-39
2023/10/02 05:23:05;;;;;;;;;3.00;3.00;;;;;24.27;48.44;101498.10;109995;1254;20079;-39
2023/10/02 05:25:36;;;;;;;;;6.00;3.00;;;;;24.31;49.01;101496.84;110030;1263;19386;-39
2023/10/02 05:28:05;;;;;;;;;3.00;3.00;;;;;24.32;48.78;101504.95;110060;1259;18490;-38
2023/10/02 05:30:42;;;;;;;;;3.00;3.00;;;;;24.30;48.68;101506.27;109995;1266;19084;-38
2023/10/02 05:33:09;;;;;;;;;3.00;3.00;;;;;24.35;48.01;101505.77;110025;1253;19860;-40
2023/10/02 05:35:45;;;;;;;;;6.00;6.00;;;;;24.35;47.71;101504.89;110002;1266;18486;-38
2023/10/02 05:38:16;;;;;;;;;6.00;6.00;;;;;24.37;47.27;101509.38;110047;1267;20030;-38
2023/10/02 05:40:47;;;;;;;;;7.00;6.50;;;;;24.35;47.02;101514.53;110042;1259;20791;-39
2023/10/02 05:43:18;;;;;;;;;7.00;7.00;;;;;24.33;46.78;101518.86;110015;1251;19603;-39
2023/10/02 05:45:50;;;;;;;;;9.00;9.00;;;;;24.33;46.29;101523.52;110006;1252;20042;-38
2023/10/02 05:48:27;;;;;;;;;10.50;10.50;;;;;24.33;46.13;101524.55;110015;1253;20915;-38
2023/10/02 05:50:56;;;;;;;;;10.00;10.00;;;;;24.33;45.65;101528.01;110042;1252;20987;-37
2023/10/02 05:53:25;;;;;;;;;14.00;11.00;;;;;24.31;45.17;101529.31;110005;1253;20139;-38
2023/10/02 05:56:05;;;;;;;;;14.00;14.00;;;;;24.29;44.85;101526.69;110019;1252;21062;-38
2023/10/02 05:58:32;;;;;;;;;13.00;11.00;;;;;24.27;44.60;101524.27;110040;1254;20068;-38
2023/10/02 06:01:03;;;;;;;;;11.00;11.00;;;;;24.27;44.41;101519.02;110038;1266;22888;-38
2023/10/02 06:03:34;;;;;;;;;13.00;13.00;;;;;24.25;44.23;101523.39;110003;1252;20837;-38
2023/10/02 06:06:15;;;;;;;;;19.00;18.00;;;;;24.23;43.83;101520.38;110020;1251;20027;-38
2023/10/02 06:08:42;;;;;;;;;18.00;15.00;;;;;24.19;43.78;101521.09;110059;1253;18737;-38
2023/10/02 06:11:25;;;;;;;;;17.50;15.00;;;;;24.12;43.76;101530.13;110017;1252;22046;-38
2023/10/02 06:13:54;;;;;;;;;18.67;15.67;;;;;24.13;43.91;101526.62;109981;1253;20104;-38
2023/10/02 06:16:23;;;;;;;;;15.00;15.00;;;;;24.21;43.46;101526.39;110015;1252;20085;-39
2023/10/02 06:19:00;;;;;;;;;18.50;14.50;;;;;24.24;43.44;101524.36;110003;1266;19320;-38
2023/10/02 06:21:27;;;;;;;;;12.00;10.50;;;;;24.19;43.56;101524.92;110006;1251;22475;-38
2023/10/02 06:23:56;;;;;;;;;14.00;13.00;;;;;24.23;43.15;101526.17;109947;1253;21520;-38
2023/10/02 06:26:27;;;;;;;;;17.00;17.00;;;;;24.18;43.21;101526.77;109935;1266;19324;-39
2023/10/02 06:31:41;;;;;;;;;17.00;15.00;;;;;24.17;43.18;101536.09;110008;1251;20146;-39
2023/10/02 06:34:11;;;;;;;;;13.00;11.00;;;;;24.17;43.07;101535.59;109989;1267;19389;-39
2023/10/02 06:36:47;;;;;;;;;13.50;13.00;;;;;24.17;42.88;101536.14;110034;1266;18672;-39
2023/10/02 06:39:17;;;;;;;;;17.00;14.50;;;;;24.18;42.95;101536.85;110015;1266;18772;-38
2023/10/02 06:41:46;;;;;;;;;13.50;13.00;;;;;24.19;42.92;101536.52;110057;1252;20863;-39
2023/10/02 06:44:16;;;;;;;;;17.00;15.67;;;;;24.18;43.00;101538.50;109998;1266;18626;-38
2023/10/02 06:46:53;;;;;;;;;12.67;12.67;;;;;24.18;42.84;101535.31;110019;1260;21160;-38
2023/10/02 06:49:21;;;;;;;;;14.00;14.00;;;;;24.18;42.83;101532.20;110038;1253;20768;-39
2023/10/02 06:51:49;;;;;;;;;17.00;15.00;;;;;24.17;42.75;101530.50;110025;1251;20101;-38
2023/10/02 06:54:17;;;;;;;;;18.00;14.50;;;;;24.16;42.93;101533.07;110012;1252;20287;-39
2023/10/02 06:56:44;;;;;;;;;13.00;12.00;;;;;24.15;42.87;101540.90;110009;1251;20787;-39
2023/10/02 06:59:12;;;;;;;;;17.67;14.33;;;;;24.16;42.89;101543.59;110058;1253;20065;-39
2023/10/02 07:02:01;;;;;;;;;19.00;18.00;;;;;24.18;42.45;101539.10;110028;1251;20149;-39
2023/10/02 07:04:30;;;;;;;;;17.50;15.50;;;;;24.16;42.45;101539.10;110013;1262;20937;-39
2023/10/02 07:07:02;;;;;;;;;17.00;17.00;;;;;24.05;43.09;101537.68;110031;1251;20068;-39
2023/10/02 07:09:31;;;;;;;;;20.00;16.00;;;;;23.96;43.03;101535.98;110035;1260;20069;-38
2023/10/02 07:12:08;;;;;;;;;18.00;14.00;;;;;23.88;43.57;101536.02;110008;1253;20975;-39
2023/10/02 07:14:36;;;;;;;;;13.00;11.00;;;;;23.94;43.54;101532.90;110007;1251;20100;-39
2023/10/02 07:17:11;;;;;;;;;14.00;14.00;;;;;23.95;43.91;101536.90;110004;1261;21447;-38
2023/10/02 07:19:39;;;;;;;;;12.50;11.00;;;;;23.99;44.05;101535.54;110017;1266;19353;-38
2023/10/02 07:22:16;;;;;;;;;13.00;13.00;;;;;24.06;43.96;101538.44;109984;1266;18727;-39
2023/10/02 07:24:46;;;;;;;;;11.00;10.00;;;;;24.05;43.96;101540.24;110007;1252;20240;-39
2023/10/02 07:27:23;;;;;;;;;9.50;9.50;;;;;24.08;44.10;101544.36;110012;1253;20800;-38
2023/10/02 07:29:52;;;;;;;;;13.67;12.33;;;;;24.09;44.29;101543.59;110026;1252;20124;-38
2023/10/02 07:32:20;;;;;;;;;13.00;13.00;;;;;24.08;44.60;101541.17;110014;1267;18636;-38
2023/10/02 07:34:48;;;;;;;;;13.50;12.00;;;;;24.09;44.62;101548.63;110034;1267;19337;-39
2023/10/02 07:37:16;;;;;;;;;14.00;13.00;;;;;24.06;44.75;101550.42;109999;1252;20154;-38
2023/10/02 07:39:44;;;;;;;;;15.00;15.00;;;;;23.94;44.80;101554.91;110022;1253;20278;-38
2023/10/02 07:42:11;;;;;;;;;15.00;15.00;;;;;23.90;45.36;101552.23;109919;1253;21006;-38
2023/10/02 07:44:39;;;;;;;;;19.00;13.00;;;;;23.93;45.48;101554.58;110016;1267;18654;-39
2023/10/02 07:47:10;;;;;;;;;14.00;13.50;;;;;23.87;45.38;101555.22;109999;1267;18745;-39
2023/10/02 07:49:38;;;;;;;;;17.00;15.00;;;;;23.82;45.53;101556.27;110023;1267;19427;-38
2023/10/02 07:52:06;;;;;;;;;18.00;17.50;;;;;23.83;45.29;101553.20;110013;1266;18678;-39
2023/10/02 07:54:44;;;;;;;;;18.00;14.00;;;;;23.79;45.49;101553.41;110007;1260;20186;-38
2023/10/02 07:57:13;;;;;;;;;17.00;16.00;;;;;23.83;45.37;101561.95;110010;1251;20761;-38
2023/10/02 07:59:43;;;;;;;;;21.00;18.00;;;;;23.78;45.40;101564.40;110010;1252;20098;-38
2023/10/02 08:02:23;;;;;;;;;18.00;16.00;;;;;23.75;45.27;101562.31;110028;1267;19275;-38
2023/10/02 08:04:51;;;;;;;;;17.50;16.00;;;;;23.80;45.21;101558.94;110028;1253;20850;-37
2023/10/02 08:07:18;;;;;;;;;20.00;18.00;;;;;23.76;45.51;101557.78;109985;1260;22844;-38
2023/10/02 08:09:48;;;;;;;;;17.00;16.00;;;;;23.71;45.46;101555.09;109990;1261;18717;-38
2023/10/02 08:12:29;;;;;;;;;20.00;20.00;;;;;23.68;45.09;101552.35;109985;1266;20689;-38
2023/10/02 08:14:58;;;;;;;;;19.00;18.00;;;;;23.56;45.25;101554.98;110003;1259;18639;-37
2023/10/02 08:17:59;;;;;;;;;24.00;22.00;;;;;23.51;45.16;101553.05;109986;1252;20231;-38
2023/10/02 08:20:24;;;;;;;;;18.00;17.33;;;;;23.34;45.04;101552.93;109939;1252;20698;-38
2023/10/02 08:22:52;;;;;;;;;18.00;17.00;;;;;23.35;45.09;101551.52;109886;1253;21287;-38
2023/10/02 08:25:23;;;;;;;;;18.00;17.00;;;;;23.35;46.17;101551.67;110029;1266;18717;-38
2023/10/02 08:27:55;;;;;;;;;23.00;20.00;;;;;23.35;46.41;101546.27;109972;1267;19616;-39
2023/10/02 08:30:28;;;;;;;;;21.00;19.00;;;;;23.08;46.43;101548.89;110016;1251;20103;-40
2023/10/02 08:32:55;;;;;;;;;22.00;20.50;;;;;23.07;46.62;101545.27;110027;1251;22638;-40
2023/10/02 08:35:24;;;;;;;;;14.00;14.00;;;;;23.02;46.43;101547.01;109943;1267;19662;-40
2023/10/02 08:37:54;;;;;;;;;20.00;19.00;;;;;23.26;46.19;101542.56;109908;1253;20035;-39
2023/10/02 08:40:21;;;;;;;;;14.00;13.00;;;;;23.41;46.27;101539.73;109923;1251;20131;-38
2023/10/02 08:42:52;;;;;;;;;16.00;15.00;;;;;23.49;46.19;101535.65;109984;1253;20767;-38
2023/10/02 08:45:20;;;;;;;;;14.00;13.00;;;;;23.61;45.83;101534.45;110011;1253;20079;-39
2023/10/02 08:47:48;;;;;;;;;16.50;13.00;;;;;23.69;45.80;101525.55;109973;1267;18634;-38
2023/10/02 08:50:15;;;;;;;;;26.00;22.00;;;;;23.69;45.88;101530.69;110010;1251;20831;-38
2023/10/02 08:52:47;;;;;;;;;18.00;16.00;;;;;23.72;46.07;101526.86;109995;1251;21989;-40
2023/10/02 08:55:26;;;;;;;;;20.00;16.00;;;;;23.74;46.07;101523.85;110042;1262;20212;-39
2023/10/02 08:57:55;;;;;;;;;14.00;14.00;;;;;23.72;45.81;101520.35;109975;1252;20843;-40
2023/10/02 09:00:24;;;;;;;;;22.00;17.00;;;;;23.72;45.51;101526.21;109893;1252;20098;-38
2023/10/02 09:02:54;;;;;;;;;17.00;16.00;;;;;23.69;45.66;101524.39;109883;1259;18728;-37
2023/10/02 09:05:21;;;;;;;;;13.00;13.00;;;;;23.70;45.46;101528.50;109921;1258;20902;-38
2023/10/02 09:08:01;;;;;;;;;16.00;14.00;;;;;23.65;45.77;101526.69;109896;1252;22081;-38
2023/10/02 09:10:30;;;;;;;;;16.00;14.00;;;;;23.61;45.76;101528.48;109870;1251;20227;-38
2023/10/02 09:13:01;;;;;;;;;14.00;13.00;;;;;23.59;45.99;101532.91;109913;1251;23812;-38
2023/10/02 09:15:29;;;;;;;;;13.00;13.00;;;;;23.55;46.17;101536.94;109864;1266;18701;-38
2023/10/02 09:17:58;;;;;;;;;13.00;12.00;;;;;23.52;46.51;101536.42;109919;1252;22933;-38
2023/10/02 09:20:38;;;;;;;;;13.00;13.00;;;;;23.48;46.51;101535.26;109971;1267;19450;-38
2023/10/02 09:23:09;;;;;;;;;13.00;12.00;;;;;23.52;46.59;101534.06;110024;1261;19892;-37
2023/10/02 09:25:37;;;;;;;;;13.00;12.00;;;;;23.47;46.47;101528.74;110023;1253;20172;-37
2023/10/02 09:28:13;;;;;;;;;19.00;14.00;;;;;23.44;46.79;101524.91;109990;1259;19482;-39
2023/10/02 09:30:41;;;;;;;;;9.50;9.50;;;;;23.45;47.11;101520.16;110020;1251;20054;-39
2023/10/02 09:33:14;;;;;;;;;14.00;13.00;;;;;23.42;47.15;101517.20;110019;1253;20046;-39
2023/10/02 09:35:43;;;;;;;;;12.00;12.00;;;;;23.38;47.47;101511.49;110026;1266;19489;-39
2023/10/02 09:38:13;;;;;;;;;13.00;12.00;;;;;23.42;47.29;101507.79;109995;1253;20044;-39
2023/10/02 09:40:54;;;;;;;;;13.00;12.00;;;;;23.46;47.45;101509.44;110011;1252;20162;-39
2023/10/02 09:43:23;;;;;;;;;12.00;10.00;;;;;23.46;47.52;101506.33;109996;1266;19506;-39
2023/10/02 09:45:52;;;;;;;;;12.00;12.00;;;;;23.45;47.58;101509.60;110051;1259;19959;-39
2023/10/02 09:51:06;;;;;;;;;12.50;12.00;;;;;23.41;48.10;101515.50;109997;1259;23905;-39
2023/10/02 09:53:34;;;;;;;;;12.00;9.50;;;;;23.43;48.45;101516.27;109983;1252;18493;-40
2023/10/02 09:56:01;;;;;;;;;12.00;10.00;;;;;23.43;48.07;101515.94;109996;1267;20397;-39
2023/10/02 09:58:29;;;;;;;;;12.00;10.00;;;;;23.42;48.39;101517.85;109997;1261;20865;-39
2023/10/02 10:00:56;;;;;;;;;12.00;10.00;;;;;23.39;48.51;101514.84;109996;1252;20066;-39
2023/10/02 10:03:24;;;;;;;;;15.00;12.00;;;;;23.40;48.51;101516.65;109811;1251;250245;-39
2023/10/02 10:05:56;;;;;;;;;15.00;12.00;;;;;23.31;48.88;101513.45;109998;1259;20783;-39
2023/10/02 10:08:33;;;;;;;;;15.00;13.00;;;;;23.25;49.32;101512.88;109994;1253;20117;-39
2023/10/02 10:11:13;;;;;;;;;13.00;10.00;;;;;23.29;49.32;101508.63;110005;1251;18860;-39
2023/10/02 10:13:49;;;;;;;;;11.67;11.00;;;;;23.33;49.35;101509.80;109957;1251;20914;-39
2023/10/02 10:16:19;;;;;;;;;14.00;12.00;;;;;23.38;49.17;101509.96;109949;1267;19958;-40
2023/10/02 10:18:47;;;;;;;;;16.00;13.00;;;;;23.39;49.56;101512.43;109998;1267;18737;-39
2023/10/02 10:21:15;;;;;;;;;14.00;13.00;;;;;23.33;49.84;101512.80;110007;1253;20825;-39
2023/10/02 10:23:43;;;;;;;;;17.00;16.00;;;;;23.35;49.80;101507.83;110007;1266;18642;-39
2023/10/02 10:26:10;;;;;;;;;17.00;13.00;;;;;23.37;49.65;101506.95;109998;1251;20934;-39
2023/10/02 10:28:50;;;;;;;;;16.50;13.50;;;;;23.36;49.85;101508.05;110003;1251;19385;-39
2023/10/02 10:31:18;;;;;;;;;13.00;13.00;;;;;23.34;49.82;101506.73;109978;1267;18643;-39
2023/10/02 10:33:45;;;;;;;;;17.00;16.00;;;;;23.35;49.71;101507.50;109999;1267;18739;-39
2023/10/02 10:36:13;;;;;;;;;12.00;12.00;;;;;23.34;49.83;101501.09;109979;1253;21939;-38
2023/10/02 10:38:44;;;;;;;;;14.50;13.00;;;;;23.34;49.54;101500.27;110007;1253;22765;-38
2023/10/02 10:41:14;;;;;;;;;15.50;12.50;;;;;23.35;49.86;101501.70;110009;1252;20274;-38
2023/10/02 10:43:54;;;;;;;;;13.00;13.00;;;;;23.37;49.90;101504.50;110027;1253;20865;-38
2023/10/02 10:46:22;;;;;;;;;13.50;12.50;;;;;23.34;49.97;101500.06;110003;1252;20137;-39
2023/10/02 10:48:53;;;;;;;;;12.00;12.00;;;;;23.35;50.37;101500.94;110070;1251;20205;-39
2023/10/02 10:51:22;;;;;;;;;19.00;16.00;;;;;23.35;50.34;101498.86;110029;1253;20744;-39
2023/10/02 10:53:52;;;;;;;;;13.00;12.00;;;;;23.35;50.62;101493.88;110011;1252;20064;-39
2023/10/02 10:56:22;;;;;;;;;13.00;13.00;;;;;23.38;50.77;101489.20;109992;1260;19970;-38
2023/10/02 10:58:50;;;;;;;;;13.00;12.00;;;;;23.37;50.42;101486.34;110008;1267;20809;-38
2023/10/02 11:01:17;;;;;;;;;14.00;13.00;;;;;23.41;50.62;101482.25;110057;1267;19980;-38
2023/10/02 11:03:44;;;;;;;;;14.00;14.00;;;;;23.43;50.94;101483.73;109999;1253;20165;-38
2023/10/02 11:06:15;;;;;;;;;16.50;12.50;;;;;23.45;50.69;101482.48;110033;1251;22795;-38
2023/10/02 11:08:44;;;;;;;;;13.00;12.00;;;;;23.44;50.75;101475.86;109944;1251;20054;-38
2023/10/02 11:11:19;;;;;;;;;13.00;13.00;;;;;23.45;51.20;101476.13;109947;1253;20221;-38
2023/10/02 11:13:54;;;;;;;;;13.00;13.00;;;;;23.45;51.19;101467.50;110087;1251;22312;-38
2023/10/02 11:16:21;;;;;;;;;13.00;12.00;;;;;23.45;51.12;101466.77;110029;1267;18660;-38
2023/10/02 11:18:49;;;;;;;;;14.00;13.00;;;;;23.41;51.07;101464.54;109980;1267;18757;-39
2023/10/02 11:21:21;;;;;;;;;16.00;16.00;;;;;23.39;51.04;101466.06;109984;1253;20830;-39
2023/10/02 11:23:49;;;;;;;;;13.00;12.00;;;;;23.42;50.68;101462.95;109971;1251;22513;-39
2023/10/02 11:26:21;;;;;;;;;19.00;16.00;;;;;23.44;50.78;101458.30;109981;1260;20537;-39
2023/10/02 11:28:50;;;;;;;;;14.00;12.00;;;;;23.41;50.88;101456.83;109977;1253;20826;-39
2023/10/02 11:31:30;;;;;;;;;16.33;14.67;;;;;23.39;50.66;101454.63;109986;1251;19997;-39
2023/10/02 11:33:58;;;;;;;;;17.00;16.00;;;;;23.48;50.54;101448.90;109980;1253;21278;-39
2023/10/02 11:36:27;;;;;;;;;16.00;12.00;;;;;23.47;50.46;101444.86;109957;1253;19378;-39
2023/10/02 11:38:56;;;;;;;;;13.00;13.00;;;;;23.46;50.40;101439.55;110010;1252;20102;-39